sensor_id;sensor_type;location;lat;lon;timestamp;temperature;humidity
66343;DHT22;53144;51.524;5.080;2024-02-21T00:00:39;8.99;94.70
66343;DHT22;53144;51.524;5.080;2024-02-21T00:03:05;8.96;94.68
66343;DHT22;53144;51.524;5.080;2024-02-21T00:05:31;8.91;94.76
66343;DHT22;53144;51.524;5.080;2024-02-21T00:07:59;9.00;94.55
66343;DHT22;53144;51.524;5.080;2024-02-21T00:10:26;8.93;94.61
66343;DHT22;53144;51.524;5.080;2024-02-21T00:12:52;8.99;94.77
66343;DHT22;53144;51.524;5.080;2024-02-21T00:15:17;9.00;94.52
66343;DHT22;53144;51.524;5.080;2024-02-21T00:17:44;9.09;94.20
66343;DHT22;53144;51.524;5.080;2024-02-21T00:20:09;9.01;94.07
66343;DHT22;53144;51.524;5.080;2024-02-21T00:22:35;9.03;94.29
66343;DHT22;53144;51.524;5.080;2024-02-21T00:25:00;8.97;94.29
66343;DHT22;53144;51.524;5.080;2024-02-21T00:27:26;8.90;94.50
66343;DHT22;53144;51.524;5.080;2024-02-21T00:29:51;8.84;94.72
66343;DHT22;53144;51.524;5.080;2024-02-21T00:32:17;8.89;94.84
66343;DHT22;53144;51.524;5.080;2024-02-21T00:34:43;8.77;94.88
66343;DHT22;53144;51.524;5.080;2024-02-21T00:37:09;8.72;95.02
66343;DHT22;53144;51.524;5.080;2024-02-21T00:39:34;8.72;95.14
66343;DHT22;53144;51.524;5.080;2024-02-21T00:41:59;8.70;95.02
66343;DHT22;53144;51.524;5.080;2024-02-21T00:44:25;8.77;94.88
66343;DHT22;53144;51.524;5.080;2024-02-21T00:46:50;8.73;94.87
66343;DHT22;53144;51.524;5.080;2024-02-21T00:49:17;8.75;94.83
66343;DHT22;53144;51.524;5.080;2024-02-21T00:51:43;8.76;94.87
66343;DHT22;53144;51.524;5.080;2024-02-21T00:54:08;8.72;94.91
66343;DHT22;53144;51.524;5.080;2024-02-21T00:56:34;8.72;94.98
66343;DHT22;53144;51.524;5.080;2024-02-21T00:58:59;8.81;94.80
66343;DHT22;53144;51.524;5.080;2024-02-21T01:01:24;8.77;94.69
66343;DHT22;53144;51.524;5.080;2024-02-21T01:03:50;8.77;94.59
66343;DHT22;53144;51.524;5.080;2024-02-21T01:06:18;8.80;94.55
66343;DHT22;53144;51.524;5.080;2024-02-21T01:08:44;8.72;94.73
66343;DHT22;53144;51.524;5.080;2024-02-21T01:11:09;8.66;94.91
66343;DHT22;53144;51.524;5.080;2024-02-21T01:13:34;8.70;94.85
66343;DHT22;53144;51.524;5.080;2024-02-21T01:16:00;8.66;95.10
66343;DHT22;53144;51.524;5.080;2024-02-21T01:18:25;8.65;94.95
66343;DHT22;53144;51.524;5.080;2024-02-21T01:20:51;8.62;94.98
66343;DHT22;53144;51.524;5.080;2024-02-21T01:23:16;8.73;94.72
66343;DHT22;53144;51.524;5.080;2024-02-21T01:25:41;8.72;94.67
66343;DHT22;53144;51.524;5.080;2024-02-21T01:28:07;8.79;94.45
66343;DHT22;53144;51.524;5.080;2024-02-21T01:30:33;8.77;94.45
66343;DHT22;53144;51.524;5.080;2024-02-21T01:32:58;8.80;94.40
66343;DHT22;53144;51.524;5.080;2024-02-21T01:35:23;8.81;94.17
66343;DHT22;53144;51.524;5.080;2024-02-21T01:37:49;8.77;94.00
66343;DHT22;53144;51.524;5.080;2024-02-21T01:40:14;8.81;94.08
66343;DHT22;53144;51.524;5.080;2024-02-21T01:42:40;8.81;93.68
66343;DHT22;53144;51.524;5.080;2024-02-21T01:45:08;8.80;93.63
66343;DHT22;53144;51.524;5.080;2024-02-21T01:47:34;8.87;93.53
66343;DHT22;53144;51.524;5.080;2024-02-21T01:50:00;8.86;93.48
66343;DHT22;53144;51.524;5.080;2024-02-21T01:52:28;8.81;93.51
66343;DHT22;53144;51.524;5.080;2024-02-21T01:54:54;8.84;93.49
66343;DHT22;53144;51.524;5.080;2024-02-21T01:57:20;8.80;93.46
66343;DHT22;53144;51.524;5.080;2024-02-21T01:59:45;8.75;93.47
66343;DHT22;53144;51.524;5.080;2024-02-21T02:02:11;8.89;93.29
66343;DHT22;53144;51.524;5.080;2024-02-21T02:04:38;8.81;93.25
66343;DHT22;53144;51.524;5.080;2024-02-21T02:07:06;8.81;93.24
66343;DHT22;53144;51.524;5.080;2024-02-21T02:09:32;8.89;92.87
66343;DHT22;53144;51.524;5.080;2024-02-21T02:11:57;8.83;93.16
66343;DHT22;53144;51.524;5.080;2024-02-21T02:14:24;8.86;93.20
66343;DHT22;53144;51.524;5.080;2024-02-21T02:16:50;8.89;93.03
66343;DHT22;53144;51.524;5.080;2024-02-21T02:19:15;8.84;93.09
66343;DHT22;53144;51.524;5.080;2024-02-21T02:21:42;8.89;92.91
66343;DHT22;53144;51.524;5.080;2024-02-21T02:24:08;8.93;92.93
66343;DHT22;53144;51.524;5.080;2024-02-21T02:26:33;8.89;92.85
66343;DHT22;53144;51.524;5.080;2024-02-21T02:29:01;8.75;93.30
66343;DHT22;53144;51.524;5.080;2024-02-21T02:31:27;8.76;93.41
66343;DHT22;53144;51.524;5.080;2024-02-21T02:33:52;8.73;93.34
66343;DHT22;53144;51.524;5.080;2024-02-21T02:36:18;8.73;93.48
66343;DHT22;53144;51.524;5.080;2024-02-21T02:38:43;8.70;93.50
66343;DHT22;53144;51.524;5.080;2024-02-21T02:41:09;8.73;93.22
66343;DHT22;53144;51.524;5.080;2024-02-21T02:43:34;8.77;93.16
66343;DHT22;53144;51.524;5.080;2024-02-21T02:45:59;8.76;93.09
66343;DHT22;53144;51.524;5.080;2024-02-21T02:48:25;8.77;93.29
66343;DHT22;53144;51.524;5.080;2024-02-21T02:50:50;8.75;93.41
66343;DHT22;53144;51.524;5.080;2024-02-21T02:53:15;8.76;93.36
66343;DHT22;53144;51.524;5.080;2024-02-21T02:55:41;8.75;93.51
66343;DHT22;53144;51.524;5.080;2024-02-21T02:58:06;8.75;93.34
66343;DHT22;53144;51.524;5.080;2024-02-21T03:00:31;8.79;93.36
66343;DHT22;53144;51.524;5.080;2024-02-21T03:03:01;8.77;93.21
66343;DHT22;53144;51.524;5.080;2024-02-21T03:05:27;8.77;93.15
66343;DHT22;53144;51.524;5.080;2024-02-21T03:07:53;8.81;93.18
66343;DHT22;53144;51.524;5.080;2024-02-21T03:10:18;8.76;93.31
66343;DHT22;53144;51.524;5.080;2024-02-21T03:12:44;8.80;93.52
66343;DHT22;53144;51.524;5.080;2024-02-21T03:15:15;8.86;93.37
66343;DHT22;53144;51.524;5.080;2024-02-21T03:17:41;8.84;93.26
66343;DHT22;53144;51.524;5.080;2024-02-21T03:20:07;8.87;93.27
66343;DHT22;53144;51.524;5.080;2024-02-21T03:22:36;8.79;93.70
66343;DHT22;53144;51.524;5.080;2024-02-21T03:25:02;8.77;93.49
66343;DHT22;53144;51.524;5.080;2024-02-21T03:27:27;8.77;93.78
66343;DHT22;53144;51.524;5.080;2024-02-21T03:29:53;8.75;94.02
66343;DHT22;53144;51.524;5.080;2024-02-21T03:32:18;8.70;93.90
66343;DHT22;53144;51.524;5.080;2024-02-21T03:34:44;8.70;93.97
66343;DHT22;53144;51.524;5.080;2024-02-21T03:37:09;8.72;93.81
66343;DHT22;53144;51.524;5.080;2024-02-21T03:39:34;8.73;93.97
66343;DHT22;53144;51.524;5.080;2024-02-21T03:42:00;8.69;93.94
66343;DHT22;53144;51.524;5.080;2024-02-21T03:44:33;8.68;94.11
66343;DHT22;53144;51.524;5.080;2024-02-21T03:46:59;8.73;93.97
66343;DHT22;53144;51.524;5.080;2024-02-21T03:49:25;8.72;94.24
66343;DHT22;53144;51.524;5.080;2024-02-21T03:51:50;8.66;94.36
66343;DHT22;53144;51.524;5.080;2024-02-21T03:54:16;8.72;94.05
66343;DHT22;53144;51.524;5.080;2024-02-21T03:56:42;8.75;94.19
66343;DHT22;53144;51.524;5.080;2024-02-21T03:59:07;8.65;94.48
66343;DHT22;53144;51.524;5.080;2024-02-21T04:01:34;8.59;94.66
66343;DHT22;53144;51.524;5.080;2024-02-21T04:03:59;8.65;94.59
66343;DHT22;53144;51.524;5.080;2024-02-21T04:06:25;8.59;94.59
66343;DHT22;53144;51.524;5.080;2024-02-21T04:08:50;8.58;94.60
66343;DHT22;53144;51.524;5.080;2024-02-21T04:11:15;8.60;94.72
66343;DHT22;53144;51.524;5.080;2024-02-21T04:13:42;8.56;94.63
66343;DHT22;53144;51.524;5.080;2024-02-21T04:16:08;8.55;94.66
66343;DHT22;53144;51.524;5.080;2024-02-21T04:18:33;8.56;94.79
66343;DHT22;53144;51.524;5.080;2024-02-21T04:20:58;8.58;94.70
66343;DHT22;53144;51.524;5.080;2024-02-21T04:23:24;8.58;94.64
66343;DHT22;53144;51.524;5.080;2024-02-21T04:25:49;8.66;94.51
66343;DHT22;53144;51.524;5.080;2024-02-21T04:28:15;8.65;94.28
66343;DHT22;53144;51.524;5.080;2024-02-21T04:30:40;8.70;94.20
66343;DHT22;53144;51.524;5.080;2024-02-21T04:33:05;8.68;94.08
66343;DHT22;53144;51.524;5.080;2024-02-21T04:35:30;8.72;93.87
66343;DHT22;53144;51.524;5.080;2024-02-21T04:37:56;8.68;94.07
66343;DHT22;53144;51.524;5.080;2024-02-21T04:40:21;8.68;93.96
66343;DHT22;53144;51.524;5.080;2024-02-21T04:42:47;8.66;93.95
66343;DHT22;53144;51.524;5.080;2024-02-21T04:45:12;8.69;93.92
66343;DHT22;53144;51.524;5.080;2024-02-21T04:47:37;8.66;93.89
66343;DHT22;53144;51.524;5.080;2024-02-21T04:50:03;8.68;94.01
66343;DHT22;53144;51.524;5.080;2024-02-21T04:52:28;8.68;93.93
66343;DHT22;53144;51.524;5.080;2024-02-21T04:54:54;8.69;93.88
66343;DHT22;53144;51.524;5.080;2024-02-21T04:57:20;8.75;93.51
66343;DHT22;53144;51.524;5.080;2024-02-21T04:59:46;8.70;93.71
66343;DHT22;53144;51.524;5.080;2024-02-21T05:02:16;8.72;93.64
66343;DHT22;53144;51.524;5.080;2024-02-21T05:04:42;8.70;93.74
66343;DHT22;53144;51.524;5.080;2024-02-21T05:07:08;8.66;93.96
66343;DHT22;53144;51.524;5.080;2024-02-21T05:09:33;8.69;93.83
66343;DHT22;53144;51.524;5.080;2024-02-21T05:11:58;8.66;93.63
66343;DHT22;53144;51.524;5.080;2024-02-21T05:14:27;8.68;93.64
66343;DHT22;53144;51.524;5.080;2024-02-21T05:16:53;8.69;93.44
66343;DHT22;53144;51.524;5.080;2024-02-21T05:19:19;8.66;93.49
66343;DHT22;53144;51.524;5.080;2024-02-21T05:21:45;8.66;93.53
66343;DHT22;53144;51.524;5.080;2024-02-21T05:24:10;8.68;93.65
66343;DHT22;53144;51.524;5.080;2024-02-21T05:26:36;8.62;93.75
66343;DHT22;53144;51.524;5.080;2024-02-21T05:29:01;8.58;93.73
66343;DHT22;53144;51.524;5.080;2024-02-21T05:31:26;8.58;93.84
66343;DHT22;53144;51.524;5.080;2024-02-21T05:34:07;8.55;94.02
66343;DHT22;53144;51.524;5.080;2024-02-21T05:36:33;8.52;94.00
66343;DHT22;53144;51.524;5.080;2024-02-21T05:38:59;8.56;94.11
66343;DHT22;53144;51.524;5.080;2024-02-21T05:41:26;8.52;94.01
66343;DHT22;53144;51.524;5.080;2024-02-21T05:43:51;8.60;93.97
66343;DHT22;53144;51.524;5.080;2024-02-21T05:46:19;8.60;93.72
66343;DHT22;53144;51.524;5.080;2024-02-21T05:48:44;8.59;93.81
66343;DHT22;53144;51.524;5.080;2024-02-21T05:51:09;8.63;93.65
66343;DHT22;53144;51.524;5.080;2024-02-21T05:53:35;8.63;93.46
66343;DHT22;53144;51.524;5.080;2024-02-21T05:56:01;8.65;93.51
66343;DHT22;53144;51.524;5.080;2024-02-21T05:58:27;8.62;93.64
66343;DHT22;53144;51.524;5.080;2024-02-21T06:00:52;8.72;93.43
66343;DHT22;53144;51.524;5.080;2024-02-21T06:03:17;8.70;93.35
66343;DHT22;53144;51.524;5.080;2024-02-21T06:05:43;8.63;93.68
66343;DHT22;53144;51.524;5.080;2024-02-21T06:08:08;8.65;93.26
66343;DHT22;53144;51.524;5.080;2024-02-21T06:10:34;8.68;93.44
66343;DHT22;53144;51.524;5.080;2024-02-21T06:12:59;8.63;93.40
66343;DHT22;53144;51.524;5.080;2024-02-21T06:15:25;8.72;93.36
66343;DHT22;53144;51.524;5.080;2024-02-21T06:17:50;8.75;93.41
66343;DHT22;53144;51.524;5.080;2024-02-21T06:20:18;8.72;93.44
66343;DHT22;53144;51.524;5.080;2024-02-21T06:22:44;8.75;93.09
66343;DHT22;53144;51.524;5.080;2024-02-21T06:25:09;8.66;93.39
66343;DHT22;53144;51.524;5.080;2024-02-21T06:27:34;8.68;93.17
66343;DHT22;53144;51.524;5.080;2024-02-21T06:30:00;8.69;93.37
66343;DHT22;53144;51.524;5.080;2024-02-21T06:32:25;8.66;93.35
66343;DHT22;53144;51.524;5.080;2024-02-21T06:34:50;8.63;93.18
66343;DHT22;53144;51.524;5.080;2024-02-21T06:37:16;8.68;93.43
66343;DHT22;53144;51.524;5.080;2024-02-21T06:39:41;8.69;93.64
66343;DHT22;53144;51.524;5.080;2024-02-21T06:42:06;8.59;93.56
66343;DHT22;53144;51.524;5.080;2024-02-21T06:44:32;8.58;93.43
66343;DHT22;53144;51.524;5.080;2024-02-21T06:47:01;8.62;93.47
66343;DHT22;53144;51.524;5.080;2024-02-21T06:49:27;8.62;93.84
66343;DHT22;53144;51.524;5.080;2024-02-21T06:51:52;8.59;93.57
66343;DHT22;53144;51.524;5.080;2024-02-21T06:54:18;8.55;93.68
66343;DHT22;53144;51.524;5.080;2024-02-21T06:56:43;8.58;93.54
66343;DHT22;53144;51.524;5.080;2024-02-21T06:59:08;8.60;93.15
66343;DHT22;53144;51.524;5.080;2024-02-21T07:01:34;8.53;93.64
66343;DHT22;53144;51.524;5.080;2024-02-21T07:07:03;8.56;93.67
66343;DHT22;53144;51.524;5.080;2024-02-21T07:09:28;8.58;93.47
66343;DHT22;53144;51.524;5.080;2024-02-21T07:11:57;8.58;93.10
66343;DHT22;53144;51.524;5.080;2024-02-21T07:14:22;8.63;93.17
66343;DHT22;53144;51.524;5.080;2024-02-21T07:16:48;8.69;93.06
66343;DHT22;53144;51.524;5.080;2024-02-21T07:19:13;8.73;93.03
66343;DHT22;53144;51.524;5.080;2024-02-21T07:21:38;8.73;93.16
66343;DHT22;53144;51.524;5.080;2024-02-21T07:24:06;8.73;92.83
66343;DHT22;53144;51.524;5.080;2024-02-21T07:26:32;8.70;93.20
66343;DHT22;53144;51.524;5.080;2024-02-21T07:28:58;8.68;92.86
66343;DHT22;53144;51.524;5.080;2024-02-21T07:31:23;8.72;92.84
66343;DHT22;53144;51.524;5.080;2024-02-21T07:33:48;8.68;93.39
66343;DHT22;53144;51.524;5.080;2024-02-21T07:36:15;8.69;93.30
66343;DHT22;53144;51.524;5.080;2024-02-21T07:38:40;8.75;92.62
66343;DHT22;53144;51.524;5.080;2024-02-21T07:41:06;8.77;92.74
66343;DHT22;53144;51.524;5.080;2024-02-21T07:43:31;8.76;92.61
66343;DHT22;53144;51.524;5.080;2024-02-21T07:45:57;8.72;92.54
66343;DHT22;53144;51.524;5.080;2024-02-21T07:48:22;8.77;92.56
66343;DHT22;53144;51.524;5.080;2024-02-21T07:50:51;8.83;92.27
66343;DHT22;53144;51.524;5.080;2024-02-21T07:53:17;8.76;92.68
66343;DHT22;53144;51.524;5.080;2024-02-21T07:55:43;8.86;92.03
66343;DHT22;53144;51.524;5.080;2024-02-21T07:58:08;8.83;91.95
66343;DHT22;53144;51.524;5.080;2024-02-21T08:00:33;8.90;92.27
66343;DHT22;53144;51.524;5.080;2024-02-21T08:02:59;8.93;91.45
66343;DHT22;53144;51.524;5.080;2024-02-21T08:05:24;8.94;91.59
66343;DHT22;53144;51.524;5.080;2024-02-21T08:07:50;8.96;92.14
66343;DHT22;53144;51.524;5.080;2024-02-21T08:10:15;9.01;91.72
66343;DHT22;53144;51.524;5.080;2024-02-21T08:12:40;8.99;91.82
66343;DHT22;53144;51.524;5.080;2024-02-21T08:15:06;8.96;91.85
66343;DHT22;53144;51.524;5.080;2024-02-21T08:17:33;9.07;91.86
66343;DHT22;53144;51.524;5.080;2024-02-21T08:19:59;9.01;91.96
66343;DHT22;53144;51.524;5.080;2024-02-21T08:22:24;9.01;91.77
66343;DHT22;53144;51.524;5.080;2024-02-21T08:24:50;9.10;91.47
66343;DHT22;53144;51.524;5.080;2024-02-21T08:27:15;9.06;91.46
66343;DHT22;53144;51.524;5.080;2024-02-21T08:29:40;9.09;91.24
66343;DHT22;53144;51.524;5.080;2024-02-21T08:32:06;9.06;91.40
66343;DHT22;53144;51.524;5.080;2024-02-21T08:34:31;9.14;91.72
66343;DHT22;53144;51.524;5.080;2024-02-21T08:36:59;9.21;91.43
66343;DHT22;53144;51.524;5.080;2024-02-21T08:39:25;9.18;91.45
66343;DHT22;53144;51.524;5.080;2024-02-21T08:41:51;9.21;91.62
66343;DHT22;53144;51.524;5.080;2024-02-21T08:44:16;9.23;91.29
66343;DHT22;53144;51.524;5.080;2024-02-21T08:46:41;9.30;91.04
66343;DHT22;53144;51.524;5.080;2024-02-21T08:49:10;9.34;91.20
66343;DHT22;53144;51.524;5.080;2024-02-21T08:51:35;9.35;91.11
66343;DHT22;53144;51.524;5.080;2024-02-21T08:54:00;9.40;91.00
66343;DHT22;53144;51.524;5.080;2024-02-21T08:56:26;9.41;91.40
66343;DHT22;53144;51.524;5.080;2024-02-21T08:58:51;9.35;91.67
66343;DHT22;53144;51.524;5.080;2024-02-21T09:01:17;9.41;91.50
66343;DHT22;53144;51.524;5.080;2024-02-21T09:03:42;9.32;91.88
66343;DHT22;53144;51.524;5.080;2024-02-21T09:06:09;9.30;91.45
66343;DHT22;53144;51.524;5.080;2024-02-21T09:08:35;9.35;91.91
66343;DHT22;53144;51.524;5.080;2024-02-21T09:11:01;9.30;92.54
66343;DHT22;53144;51.524;5.080;2024-02-21T09:13:27;9.18;93.10
66343;DHT22;53144;51.524;5.080;2024-02-21T09:15:52;9.14;94.08
66343;DHT22;53144;51.524;5.080;2024-02-21T09:18:18;9.14;94.34
66343;DHT22;53144;51.524;5.080;2024-02-21T09:20:43;9.11;94.77
66343;DHT22;53144;51.524;5.080;2024-02-21T09:23:09;9.04;94.97
66343;DHT22;53144;51.524;5.080;2024-02-21T09:25:34;8.91;95.66
66343;DHT22;53144;51.524;5.080;2024-02-21T09:28:01;9.01;95.80
66343;DHT22;53144;51.524;5.080;2024-02-21T09:30:27;8.94;95.79
66343;DHT22;53144;51.524;5.080;2024-02-21T09:32:53;9.00;95.90
66343;DHT22;53144;51.524;5.080;2024-02-21T09:35:18;9.01;96.00
66343;DHT22;53144;51.524;5.080;2024-02-21T09:37:44;9.00;95.82
66343;DHT22;53144;51.524;5.080;2024-02-21T09:40:09;9.06;95.80
66343;DHT22;53144;51.524;5.080;2024-02-21T09:42:38;9.04;95.75
66343;DHT22;53144;51.524;5.080;2024-02-21T09:45:09;9.09;95.83
66343;DHT22;53144;51.524;5.080;2024-02-21T09:50:40;9.16;95.43
66343;DHT22;53144;51.524;5.080;2024-02-21T09:53:09;9.20;95.77
66343;DHT22;53144;51.524;5.080;2024-02-21T09:55:37;9.20;94.99
66343;DHT22;53144;51.524;5.080;2024-02-21T09:58:05;9.24;94.81
66343;DHT22;53144;51.524;5.080;2024-02-21T10:00:31;9.34;94.16
66343;DHT22;53144;51.524;5.080;2024-02-21T10:02:58;9.37;93.71
66343;DHT22;53144;51.524;5.080;2024-02-21T10:05:23;9.40;93.76
66343;DHT22;53144;51.524;5.080;2024-02-21T10:07:51;9.47;94.03
66343;DHT22;53144;51.524;5.080;2024-02-21T10:10:17;9.49;92.99
66343;DHT22;53144;51.524;5.080;2024-02-21T10:12:50;9.48;93.40
66343;DHT22;53144;51.524;5.080;2024-02-21T10:15:20;9.51;93.20
66343;DHT22;53144;51.524;5.080;2024-02-21T10:17:46;9.48;92.31
66343;DHT22;53144;51.524;5.080;2024-02-21T10:20:11;9.52;92.66
66343;DHT22;53144;51.524;5.080;2024-02-21T10:22:38;9.65;92.51
66343;DHT22;53144;51.524;5.080;2024-02-21T10:25:14;9.67;92.33
66343;DHT22;53144;51.524;5.080;2024-02-21T10:27:40;9.68;91.30
66343;DHT22;53144;51.524;5.080;2024-02-21T10:30:08;9.54;91.40
66343;DHT22;53144;51.524;5.080;2024-02-21T10:32:33;9.49;91.44
66343;DHT22;53144;51.524;5.080;2024-02-21T10:35:02;9.55;91.40
66343;DHT22;53144;51.524;5.080;2024-02-21T10:37:30;9.55;91.18
66343;DHT22;53144;51.524;5.080;2024-02-21T10:39:55;9.65;91.32
66343;DHT22;53144;51.524;5.080;2024-02-21T10:42:22;9.69;90.30
66343;DHT22;53144;51.524;5.080;2024-02-21T10:44:49;9.69;90.98
66343;DHT22;53144;51.524;5.080;2024-02-21T10:47:16;9.67;90.29
66343;DHT22;53144;51.524;5.080;2024-02-21T10:49:49;9.77;90.29
66343;DHT22;53144;51.524;5.080;2024-02-21T10:55:13;9.81;89.82
66343;DHT22;53144;51.524;5.080;2024-02-21T10:57:41;9.77;90.39
66343;DHT22;53144;51.524;5.080;2024-02-21T11:00:06;9.90;89.70
66343;DHT22;53144;51.524;5.080;2024-02-21T11:02:33;9.95;89.73
66343;DHT22;53144;51.524;5.080;2024-02-21T11:05:00;9.98;89.33
66343;DHT22;53144;51.524;5.080;2024-02-21T11:07:26;10.06;89.45
66343;DHT22;53144;51.524;5.080;2024-02-21T11:09:52;10.10;88.86
66343;DHT22;53144;51.524;5.080;2024-02-21T11:12:20;10.14;88.97
66343;DHT22;53144;51.524;5.080;2024-02-21T11:14:47;10.47;88.62
66343;DHT22;53144;51.524;5.080;2024-02-21T11:17:19;10.61;88.23
66343;DHT22;53144;51.524;5.080;2024-02-21T11:19:45;10.54;88.10
66343;DHT22;53144;51.524;5.080;2024-02-21T11:22:14;10.65;87.56
66343;DHT22;53144;51.524;5.080;2024-02-21T11:24:39;10.56;87.58
66343;DHT22;53144;51.524;5.080;2024-02-21T11:29:33;10.47;88.37
66343;DHT22;53144;51.524;5.080;2024-02-21T11:32:09;10.48;87.86
66343;DHT22;53144;51.524;5.080;2024-02-21T11:34:34;10.46;86.86
66343;DHT22;53144;51.524;5.080;2024-02-21T11:37:00;10.63;87.48
66343;DHT22;53144;51.524;5.080;2024-02-21T11:39:26;10.79;87.18
66343;DHT22;53144;51.524;5.080;2024-02-21T11:42:04;10.84;87.84
66343;DHT22;53144;51.524;5.080;2024-02-21T11:44:31;10.92;86.05
66343;DHT22;53144;51.524;5.080;2024-02-21T11:46:57;10.96;86.13
66343;DHT22;53144;51.524;5.080;2024-02-21T11:49:27;11.08;85.99
66343;DHT22;53144;51.524;5.080;2024-02-21T11:52:03;11.23;85.67
66343;DHT22;53144;51.524;5.080;2024-02-21T11:54:32;11.14;85.60
66343;DHT22;53144;51.524;5.080;2024-02-21T11:56:58;11.15;84.75
66343;DHT22;53144;51.524;5.080;2024-02-21T11:59:23;11.32;84.35
66343;DHT22;53144;51.524;5.080;2024-02-21T12:01:49;11.29;85.28
66343;DHT22;53144;51.524;5.080;2024-02-21T12:04:15;11.47;84.40
66343;DHT22;53144;51.524;5.080;2024-02-21T12:06:43;11.37;84.15
66343;DHT22;53144;51.524;5.080;2024-02-21T12:09:08;11.53;84.15
66343;DHT22;53144;51.524;5.080;2024-02-21T12:11:36;11.43;83.50
66343;DHT22;53144;51.524;5.080;2024-02-21T12:14:02;11.29;83.43
66343;DHT22;53144;51.524;5.080;2024-02-21T12:16:35;11.23;84.35
66343;DHT22;53144;51.524;5.080;2024-02-21T12:19:04;11.15;84.30
66343;DHT22;53144;51.524;5.080;2024-02-21T12:21:30;11.06;84.29
66343;DHT22;53144;51.524;5.080;2024-02-21T12:23:55;11.14;84.75
66343;DHT22;53144;51.524;5.080;2024-02-21T12:26:21;11.12;85.12
66343;DHT22;53144;51.524;5.080;2024-02-21T12:28:47;11.08;84.72
66343;DHT22;53144;51.524;5.080;2024-02-21T12:31:12;11.06;84.99
66343;DHT22;53144;51.524;5.080;2024-02-21T12:33:38;11.12;84.83
66343;DHT22;53144;51.524;5.080;2024-02-21T12:36:03;11.12;84.24
66343;DHT22;53144;51.524;5.080;2024-02-21T12:38:29;11.05;84.27
66343;DHT22;53144;51.524;5.080;2024-02-21T12:40:54;11.08;83.87
66343;DHT22;53144;51.524;5.080;2024-02-21T12:43:22;11.05;84.18
66343;DHT22;53144;51.524;5.080;2024-02-21T12:45:48;10.99;84.09
66343;DHT22;53144;51.524;5.080;2024-02-21T12:48:14;10.98;84.58
66343;DHT22;53144;51.524;5.080;2024-02-21T12:50:40;11.01;84.24
66343;DHT22;53144;51.524;5.080;2024-02-21T12:53:09;11.08;84.26
66343;DHT22;53144;51.524;5.080;2024-02-21T12:55:34;11.16;84.84
66343;DHT22;53144;51.524;5.080;2024-02-21T12:58:03;11.14;83.77
66343;DHT22;53144;51.524;5.080;2024-02-21T13:00:30;11.11;83.63
66343;DHT22;53144;51.524;5.080;2024-02-21T13:02:56;11.05;83.75
66343;DHT22;53144;51.524;5.080;2024-02-21T13:05:22;11.08;83.62
66343;DHT22;53144;51.524;5.080;2024-02-21T13:07:48;11.08;83.32
66343;DHT22;53144;51.524;5.080;2024-02-21T13:10:13;11.04;83.03
66343;DHT22;53144;51.524;5.080;2024-02-21T13:12:39;11.12;83.24
66343;DHT22;53144;51.524;5.080;2024-02-21T13:15:05;11.06;83.58
66343;DHT22;53144;51.524;5.080;2024-02-21T13:17:30;11.05;83.51
66343;DHT22;53144;51.524;5.080;2024-02-21T13:19:57;11.11;84.31
66343;DHT22;53144;51.524;5.080;2024-02-21T13:22:22;11.01;84.03
66343;DHT22;53144;51.524;5.080;2024-02-21T13:24:51;10.99;83.45
66343;DHT22;53144;51.524;5.080;2024-02-21T13:27:16;11.06;83.58
66343;DHT22;53144;51.524;5.080;2024-02-21T13:29:42;11.11;83.46
66343;DHT22;53144;51.524;5.080;2024-02-21T13:32:07;11.06;83.33
66343;DHT22;53144;51.524;5.080;2024-02-21T13:34:32;11.16;84.04
66343;DHT22;53144;51.524;5.080;2024-02-21T13:36:58;11.12;84.19
66343;DHT22;53144;51.524;5.080;2024-02-21T13:39:24;11.06;83.07
66343;DHT22;53144;51.524;5.080;2024-02-21T13:41:50;11.01;83.83
66343;DHT22;53144;51.524;5.080;2024-02-21T13:44:15;10.95;83.24
66343;DHT22;53144;51.524;5.080;2024-02-21T13:46:40;10.94;83.33
66343;DHT22;53144;51.524;5.080;2024-02-21T13:49:06;10.88;83.10
66343;DHT22;53144;51.524;5.080;2024-02-21T13:51:35;10.91;83.34
66343;DHT22;53144;51.524;5.080;2024-02-21T13:54:04;10.88;83.11
66343;DHT22;53144;51.524;5.080;2024-02-21T13:56:30;10.91;83.55
66343;DHT22;53144;51.524;5.080;2024-02-21T13:58:57;10.86;82.96
66343;DHT22;53144;51.524;5.080;2024-02-21T14:01:23;10.74;82.84
66343;DHT22;53144;51.524;5.080;2024-02-21T14:03:48;10.72;83.54
66343;DHT22;53144;51.524;5.080;2024-02-21T14:06:13;10.78;84.47
66343;DHT22;53144;51.524;5.080;2024-02-21T14:08:39;10.77;83.64
66343;DHT22;53144;51.524;5.080;2024-02-21T14:11:05;10.67;84.18
66343;DHT22;53144;51.524;5.080;2024-02-21T14:13:31;10.65;84.55
66343;DHT22;53144;51.524;5.080;2024-02-21T14:15:56;10.57;85.54
66343;DHT22;53144;51.524;5.080;2024-02-21T14:18:22;10.57;85.90
66343;DHT22;53144;51.524;5.080;2024-02-21T14:20:47;10.54;86.97
66343;DHT22;53144;51.524;5.080;2024-02-21T14:23:13;10.53;86.80
66343;DHT22;53144;51.524;5.080;2024-02-21T14:25:38;10.44;87.63
66343;DHT22;53144;51.524;5.080;2024-02-21T14:28:05;10.40;87.58
66343;DHT22;53144;51.524;5.080;2024-02-21T14:30:30;10.38;87.51
66343;DHT22;53144;51.524;5.080;2024-02-21T14:32:55;10.29;89.00
66343;DHT22;53144;51.524;5.080;2024-02-21T14:35:21;10.20;89.79
66343;DHT22;53144;51.524;5.080;2024-02-21T14:37:47;10.13;89.72
66343;DHT22;53144;51.524;5.080;2024-02-21T14:40:14;10.03;90.26
66343;DHT22;53144;51.524;5.080;2024-02-21T14:42:39;9.96;90.48
66343;DHT22;53144;51.524;5.080;2024-02-21T14:45:05;9.89;91.51
66343;DHT22;53144;51.524;5.080;2024-02-21T14:47:31;9.85;92.28
66343;DHT22;53144;51.524;5.080;2024-02-21T14:49:56;9.81;92.84
66343;DHT22;53144;51.524;5.080;2024-02-21T14:52:22;9.72;92.77
66343;DHT22;53144;51.524;5.080;2024-02-21T14:54:49;9.67;93.19
66343;DHT22;53144;51.524;5.080;2024-02-21T14:57:17;9.69;93.68
66343;DHT22;53144;51.524;5.080;2024-02-21T14:59:42;9.65;93.56
66343;DHT22;53144;51.524;5.080;2024-02-21T15:02:08;9.62;94.43
66343;DHT22;53144;51.524;5.080;2024-02-21T15:04:34;9.63;94.62
66343;DHT22;53144;51.524;5.080;2024-02-21T15:07:00;9.58;94.32
66343;DHT22;53144;51.524;5.080;2024-02-21T15:09:26;9.57;94.73
66343;DHT22;53144;51.524;5.080;2024-02-21T15:11:51;9.54;94.74
66343;DHT22;53144;51.524;5.080;2024-02-21T15:14:17;9.47;94.90
66343;DHT22;53144;51.524;5.080;2024-02-21T15:16:42;9.40;95.29
66343;DHT22;53144;51.524;5.080;2024-02-21T15:19:08;9.35;95.56
66343;DHT22;53144;51.524;5.080;2024-02-21T15:21:33;9.32;95.71
66343;DHT22;53144;51.524;5.080;2024-02-21T15:23:58;9.35;96.20
66343;DHT22;53144;51.524;5.080;2024-02-21T15:26:24;9.27;96.24
66343;DHT22;53144;51.524;5.080;2024-02-21T15:28:49;9.20;96.03
66343;DHT22;53144;51.524;5.080;2024-02-21T15:31:22;9.20;96.07
66343;DHT22;53144;51.524;5.080;2024-02-21T15:33:51;9.24;96.42
66343;DHT22;53144;51.524;5.080;2024-02-21T15:36:17;9.16;96.51
66343;DHT22;53144;51.524;5.080;2024-02-21T15:38:43;9.18;97.05
66343;DHT22;53144;51.524;5.080;2024-02-21T15:41:11;9.10;96.83
66343;DHT22;53144;51.524;5.080;2024-02-21T15:43:36;9.06;96.98
66343;DHT22;53144;51.524;5.080;2024-02-21T15:46:03;8.99;97.14